sensor_id;sensor_type;location;lat;lon;timestamp;P1;durP1;ratioP1;P2;durP2;ratioP2
34481;SDS011;20720;48.886;9.388;2023-08-12T00:01:47;4.85;;;2.80;;
34481;SDS011;20720;48.886;9.388;2023-08-12T00:04:12;6.38;;;2.70;;
34481;SDS011;20720;48.886;9.388;2023-08-12T00:06:39;4.05;;;2.53;;
34481;SDS011;20720;48.886;9.388;2023-08-12T00:09:05;3.53;;;2.60;;
34481;SDS011;20720;48.886;9.388;2023-08-12T00:11:30;4.75;;;2.92;;
34481;SDS011;20720;48.886;9.388;2023-08-12T00:13:55;5.43;;;2.72;;
34481;SDS011;20720;48.886;9.388;2023-08-12T00:16:21;4.18;;;2.72;;
34481;SDS011;20720;48.886;9.388;2023-08-12T00:18:46;6.53;;;3.08;;
34481;SDS011;20720;48.886;9.388;2023-08-12T00:21:11;4.22;;;3.10;;
34481;SDS011;20720;48.886;9.388;2023-08-12T00:23:37;4.30;;;3.08;;
34481;SDS011;20720;48.886;9.388;2023-08-12T00:26:04;4.68;;;2.97;;
34481;SDS011;20720;48.886;9.388;2023-08-12T00:28:30;6.07;;;3.55;;
34481;SDS011;20720;48.886;9.388;2023-08-12T00:30:55;8.77;;;3.15;;
34481;SDS011;20720;48.886;9.388;2023-08-12T00:33:20;5.18;;;3.20;;
34481;SDS011;20720;48.886;9.388;2023-08-12T00:35:45;5.45;;;2.72;;
34481;SDS011;20720;48.886;9.388;2023-08-12T00:38:11;5.05;;;3.10;;
34481;SDS011;20720;48.886;9.388;2023-08-12T00:40:36;4.65;;;3.00;;
34481;SDS011;20720;48.886;9.388;2023-08-12T00:43:01;4.43;;;3.00;;
34481;SDS011;20720;48.886;9.388;2023-08-12T00:45:26;4.90;;;3.10;;
34481;SDS011;20720;48.886;9.388;2023-08-12T00:47:52;5.93;;;3.28;;
34481;SDS011;20720;48.886;9.388;2023-08-12T00:50:18;4.53;;;2.67;;
34481;SDS011;20720;48.886;9.388;2023-08-12T00:52:44;4.97;;;3.00;;
34481;SDS011;20720;48.886;9.388;2023-08-12T00:55:09;3.55;;;2.60;;
34481;SDS011;20720;48.886;9.388;2023-08-12T00:57:36;4.78;;;2.58;;
34481;SDS011;20720;48.886;9.388;2023-08-12T01:00:02;3.65;;;2.47;;
34481;SDS011;20720;48.886;9.388;2023-08-12T01:02:29;4.97;;;2.97;;
34481;SDS011;20720;48.886;9.388;2023-08-12T01:04:54;4.65;;;2.45;;
34481;SDS011;20720;48.886;9.388;2023-08-12T01:07:19;4.38;;;2.70;;
34481;SDS011;20720;48.886;9.388;2023-08-12T01:09:45;3.85;;;2.83;;
34481;SDS011;20720;48.886;9.388;2023-08-12T01:12:18;4.93;;;3.05;;
34481;SDS011;20720;48.886;9.388;2023-08-12T01:17:41;3.90;;;2.80;;
34481;SDS011;20720;48.886;9.388;2023-08-12T01:20:08;6.30;;;2.85;;
34481;SDS011;20720;48.886;9.388;2023-08-12T01:22:34;5.57;;;3.25;;
34481;SDS011;20720;48.886;9.388;2023-08-12T01:25:04;4.28;;;2.75;;
34481;SDS011;20720;48.886;9.388;2023-08-12T01:27:30;5.32;;;3.17;;
34481;SDS011;20720;48.886;9.388;2023-08-12T01:29:55;7.57;;;3.47;;
34481;SDS011;20720;48.886;9.388;2023-08-12T01:37:55;5.07;;;3.47;;
34481;SDS011;20720;48.886;9.388;2023-08-12T01:40:24;3.10;;;2.38;;
34481;SDS011;20720;48.886;9.388;2023-08-12T01:42:49;4.72;;;3.15;;
34481;SDS011;20720;48.886;9.388;2023-08-12T01:45:15;5.85;;;3.17;;
34481;SDS011;20720;48.886;9.388;2023-08-12T01:47:43;6.25;;;3.38;;
34481;SDS011;20720;48.886;9.388;2023-08-12T01:50:08;8.73;;;3.03;;
34481;SDS011;20720;48.886;9.388;2023-08-12T01:52:34;4.47;;;3.00;;
34481;SDS011;20720;48.886;9.388;2023-08-12T01:55:00;4.78;;;3.20;;
34481;SDS011;20720;48.886;9.388;2023-08-12T01:57:25;5.50;;;3.30;;
34481;SDS011;20720;48.886;9.388;2023-08-12T01:59:51;4.43;;;3.00;;
34481;SDS011;20720;48.886;9.388;2023-08-12T02:02:16;4.43;;;3.10;;
34481;SDS011;20720;48.886;9.388;2023-08-12T02:04:42;5.75;;;3.40;;
34481;SDS011;20720;48.886;9.388;2023-08-12T02:07:08;5.22;;;3.38;;
34481;SDS011;20720;48.886;9.388;2023-08-12T02:09:33;4.70;;;3.35;;
34481;SDS011;20720;48.886;9.388;2023-08-12T02:11:58;6.05;;;3.58;;
34481;SDS011;20720;48.886;9.388;2023-08-12T02:14:24;5.60;;;3.20;;
34481;SDS011;20720;48.886;9.388;2023-08-12T02:16:49;4.90;;;3.30;;
34481;SDS011;20720;48.886;9.388;2023-08-12T02:19:14;6.15;;;3.47;;
34481;SDS011;20720;48.886;9.388;2023-08-12T02:21:40;8.02;;;3.83;;
34481;SDS011;20720;48.886;9.388;2023-08-12T02:24:06;5.43;;;3.58;;
34481;SDS011;20720;48.886;9.388;2023-08-12T02:26:32;7.22;;;3.17;;
34481;SDS011;20720;48.886;9.388;2023-08-12T02:28:57;5.15;;;3.22;;
34481;SDS011;20720;48.886;9.388;2023-08-12T02:31:23;5.05;;;3.42;;
34481;SDS011;20720;48.886;9.388;2023-08-12T02:33:48;3.78;;;2.97;;
34481;SDS011;20720;48.886;9.388;2023-08-12T02:36:14;6.72;;;3.35;;
34481;SDS011;20720;48.886;9.388;2023-08-12T02:38:40;6.05;;;3.35;;
34481;SDS011;20720;48.886;9.388;2023-08-12T02:41:05;5.63;;;3.42;;
34481;SDS011;20720;48.886;9.388;2023-08-12T02:43:30;4.85;;;3.08;;
34481;SDS011;20720;48.886;9.388;2023-08-12T02:45:56;6.38;;;3.20;;
34481;SDS011;20720;48.886;9.388;2023-08-12T02:48:21;3.53;;;3.00;;
34481;SDS011;20720;48.886;9.388;2023-08-12T02:50:46;5.35;;;3.50;;
34481;SDS011;20720;48.886;9.388;2023-08-12T02:53:12;5.65;;;3.80;;
34481;SDS011;20720;48.886;9.388;2023-08-12T02:55:37;5.32;;;3.55;;
34481;SDS011;20720;48.886;9.388;2023-08-12T02:58:03;5.90;;;3.92;;
34481;SDS011;20720;48.886;9.388;2023-08-12T03:00:28;8.77;;;3.70;;
34481;SDS011;20720;48.886;9.388;2023-08-12T03:02:54;7.53;;;4.55;;
34481;SDS011;20720;48.886;9.388;2023-08-12T03:05:19;5.30;;;4.03;;
34481;SDS011;20720;48.886;9.388;2023-08-12T03:07:45;5.68;;;3.83;;
34481;SDS011;20720;48.886;9.388;2023-08-12T03:10:11;8.23;;;3.80;;
34481;SDS011;20720;48.886;9.388;2023-08-12T03:12:36;10.52;;;3.55;;
34481;SDS011;20720;48.886;9.388;2023-08-12T03:15:02;5.68;;;3.85;;
34481;SDS011;20720;48.886;9.388;2023-08-12T03:17:28;5.38;;;3.38;;
34481;SDS011;20720;48.886;9.388;2023-08-12T03:19:54;5.72;;;3.72;;
34481;SDS011;20720;48.886;9.388;2023-08-12T03:22:19;4.28;;;3.40;;
34481;SDS011;20720;48.886;9.388;2023-08-12T03:24:45;7.60;;;3.17;;
34481;SDS011;20720;48.886;9.388;2023-08-12T03:27:10;4.00;;;3.13;;
34481;SDS011;20720;48.886;9.388;2023-08-12T03:29:35;5.25;;;3.60;;
34481;SDS011;20720;48.886;9.388;2023-08-12T03:32:01;5.03;;;3.03;;
34481;SDS011;20720;48.886;9.388;2023-08-12T03:34:27;6.10;;;3.45;;
34481;SDS011;20720;48.886;9.388;2023-08-12T03:36:54;4.60;;;3.22;;
34481;SDS011;20720;48.886;9.388;2023-08-12T03:39:19;4.55;;;3.20;;
34481;SDS011;20720;48.886;9.388;2023-08-12T03:41:44;4.25;;;3.40;;
34481;SDS011;20720;48.886;9.388;2023-08-12T03:44:10;4.32;;;3.45;;
34481;SDS011;20720;48.886;9.388;2023-08-12T03:46:35;7.05;;;3.30;;
34481;SDS011;20720;48.886;9.388;2023-08-12T03:49:00;5.65;;;2.95;;
34481;SDS011;20720;48.886;9.388;2023-08-12T03:51:25;5.30;;;3.10;;
34481;SDS011;20720;48.886;9.388;2023-08-12T03:53:51;5.15;;;3.20;;
34481;SDS011;20720;48.886;9.388;2023-08-12T03:56:16;5.75;;;3.58;;
34481;SDS011;20720;48.886;9.388;2023-08-12T03:58:42;8.02;;;3.50;;
34481;SDS011;20720;48.886;9.388;2023-08-12T04:01:07;4.75;;;3.30;;
34481;SDS011;20720;48.886;9.388;2023-08-12T04:03:32;4.78;;;3.22;;
34481;SDS011;20720;48.886;9.388;2023-08-12T04:05:58;4.65;;;3.80;;
34481;SDS011;20720;48.886;9.388;2023-08-12T04:08:23;7.22;;;3.58;;
34481;SDS011;20720;48.886;9.388;2023-08-12T04:10:50;3.80;;;3.10;;
34481;SDS011;20720;48.886;9.388;2023-08-12T04:13:16;5.75;;;3.40;;
34481;SDS011;20720;48.886;9.388;2023-08-12T04:15:41;6.90;;;3.72;;
34481;SDS011;20720;48.886;9.388;2023-08-12T04:18:07;4.30;;;3.25;;
34481;SDS011;20720;48.886;9.388;2023-08-12T04:20:32;9.73;;;3.97;;
34481;SDS011;20720;48.886;9.388;2023-08-12T04:22:57;4.43;;;3.40;;
34481;SDS011;20720;48.886;9.388;2023-08-12T04:25:23;5.47;;;3.58;;
34481;SDS011;20720;48.886;9.388;2023-08-12T04:27:48;6.63;;;3.35;;
34481;SDS011;20720;48.886;9.388;2023-08-12T04:30:15;3.38;;;2.90;;
34481;SDS011;20720;48.886;9.388;2023-08-12T04:32:43;5.53;;;3.60;;
34481;SDS011;20720;48.886;9.388;2023-08-12T04:35:08;8.07;;;3.63;;
34481;SDS011;20720;48.886;9.388;2023-08-12T04:37:33;6.03;;;3.67;;
34481;SDS011;20720;48.886;9.388;2023-08-12T04:40:00;6.20;;;3.70;;
34481;SDS011;20720;48.886;9.388;2023-08-12T04:42:25;5.30;;;3.78;;
34481;SDS011;20720;48.886;9.388;2023-08-12T04:44:50;7.15;;;3.40;;
34481;SDS011;20720;48.886;9.388;2023-08-12T04:47:16;7.28;;;3.60;;
34481;SDS011;20720;48.886;9.388;2023-08-12T04:49:41;5.78;;;3.97;;
34481;SDS011;20720;48.886;9.388;2023-08-12T04:52:06;4.72;;;2.97;;
34481;SDS011;20720;48.886;9.388;2023-08-12T04:54:32;6.43;;;3.30;;
34481;SDS011;20720;48.886;9.388;2023-08-12T04:56:57;4.95;;;3.60;;
34481;SDS011;20720;48.886;9.388;2023-08-12T04:59:24;7.38;;;3.80;;
34481;SDS011;20720;48.886;9.388;2023-08-12T05:01:49;5.43;;;3.55;;
34481;SDS011;20720;48.886;9.388;2023-08-12T05:04:15;6.03;;;3.50;;
34481;SDS011;20720;48.886;9.388;2023-08-12T05:06:40;3.90;;;3.15;;
34481;SDS011;20720;48.886;9.388;2023-08-12T05:09:05;5.47;;;3.63;;
34481;SDS011;20720;48.886;9.388;2023-08-12T05:11:30;7.65;;;3.90;;
34481;SDS011;20720;48.886;9.388;2023-08-12T05:13:56;5.10;;;3.83;;
34481;SDS011;20720;48.886;9.388;2023-08-12T05:16:21;5.18;;;3.72;;
34481;SDS011;20720;48.886;9.388;2023-08-12T05:18:46;7.88;;;4.20;;
34481;SDS011;20720;48.886;9.388;2023-08-12T05:21:12;6.55;;;3.58;;
34481;SDS011;20720;48.886;9.388;2023-08-12T05:23:37;9.13;;;3.95;;
34481;SDS011;20720;48.886;9.388;2023-08-12T05:26:02;4.43;;;3.63;;
34481;SDS011;20720;48.886;9.388;2023-08-12T05:28:27;6.38;;;3.60;;
34481;SDS011;20720;48.886;9.388;2023-08-12T05:30:53;5.80;;;3.33;;
34481;SDS011;20720;48.886;9.388;2023-08-12T05:33:20;4.97;;;3.33;;
34481;SDS011;20720;48.886;9.388;2023-08-12T05:35:47;6.63;;;3.22;;
34481;SDS011;20720;48.886;9.388;2023-08-12T05:38:13;6.93;;;3.45;;
34481;SDS011;20720;48.886;9.388;2023-08-12T05:40:38;6.07;;;3.10;;
34481;SDS011;20720;48.886;9.388;2023-08-12T05:43:03;4.63;;;3.33;;
34481;SDS011;20720;48.886;9.388;2023-08-12T05:45:29;4.22;;;3.10;;
34481;SDS011;20720;48.886;9.388;2023-08-12T05:47:54;4.35;;;3.08;;
34481;SDS011;20720;48.886;9.388;2023-08-12T05:50:19;7.07;;;3.70;;
34481;SDS011;20720;48.886;9.388;2023-08-12T05:52:44;10.18;;;3.70;;
34481;SDS011;20720;48.886;9.388;2023-08-12T05:55:10;6.18;;;3.60;;
34481;SDS011;20720;48.886;9.388;2023-08-12T05:57:35;6.22;;;4.05;;
34481;SDS011;20720;48.886;9.388;2023-08-12T06:00:00;6.30;;;3.35;;
34481;SDS011;20720;48.886;9.388;2023-08-12T06:02:25;5.38;;;3.50;;
34481;SDS011;20720;48.886;9.388;2023-08-12T06:04:51;6.30;;;3.50;;
34481;SDS011;20720;48.886;9.388;2023-08-12T06:07:17;5.25;;;3.20;;
34481;SDS011;20720;48.886;9.388;2023-08-12T06:09:43;6.97;;;3.47;;
34481;SDS011;20720;48.886;9.388;2023-08-12T06:12:08;7.85;;;3.25;;
34481;SDS011;20720;48.886;9.388;2023-08-12T06:14:36;5.07;;;3.20;;
34481;SDS011;20720;48.886;9.388;2023-08-12T06:17:02;3.88;;;3.08;;
34481;SDS011;20720;48.886;9.388;2023-08-12T06:19:27;4.75;;;3.08;;
34481;SDS011;20720;48.886;9.388;2023-08-12T06:21:52;5.18;;;3.40;;
34481;SDS011;20720;48.886;9.388;2023-08-12T06:24:18;4.10;;;3.17;;
34481;SDS011;20720;48.886;9.388;2023-08-12T06:26:43;4.47;;;2.78;;
34481;SDS011;20720;48.886;9.388;2023-08-12T06:29:08;5.07;;;3.60;;
34481;SDS011;20720;48.886;9.388;2023-08-12T06:31:33;5.85;;;3.00;;
34481;SDS011;20720;48.886;9.388;2023-08-12T06:33:59;4.38;;;2.85;;
34481;SDS011;20720;48.886;9.388;2023-08-12T06:36:24;4.93;;;3.63;;
34481;SDS011;20720;48.886;9.388;2023-08-12T06:38:49;4.45;;;3.60;;
34481;SDS011;20720;48.886;9.388;2023-08-12T06:41:15;4.15;;;3.08;;
34481;SDS011;20720;48.886;9.388;2023-08-12T06:43:40;4.30;;;3.42;;
34481;SDS011;20720;48.886;9.388;2023-08-12T06:46:05;4.22;;;2.97;;
34481;SDS011;20720;48.886;9.388;2023-08-12T06:48:30;4.88;;;3.15;;
34481;SDS011;20720;48.886;9.388;2023-08-12T06:50:56;6.85;;;3.17;;
34481;SDS011;20720;48.886;9.388;2023-08-12T06:53:21;4.10;;;3.20;;
34481;SDS011;20720;48.886;9.388;2023-08-12T06:55:46;4.88;;;3.28;;
34481;SDS011;20720;48.886;9.388;2023-08-12T06:58:13;5.05;;;3.13;;
34481;SDS011;20720;48.886;9.388;2023-08-12T07:00:39;5.43;;;3.28;;
34481;SDS011;20720;48.886;9.388;2023-08-12T07:03:04;4.07;;;3.33;;
34481;SDS011;20720;48.886;9.388;2023-08-12T07:05:30;6.43;;;3.07;;
34481;SDS011;20720;48.886;9.388;2023-08-12T07:07:55;5.80;;;3.20;;
34481;SDS011;20720;48.886;9.388;2023-08-12T07:10:20;4.80;;;3.53;;
34481;SDS011;20720;48.886;9.388;2023-08-12T07:12:45;5.25;;;3.40;;
34481;SDS011;20720;48.886;9.388;2023-08-12T07:15:11;4.70;;;3.17;;
34481;SDS011;20720;48.886;9.388;2023-08-12T07:17:36;6.75;;;3.10;;
34481;SDS011;20720;48.886;9.388;2023-08-12T07:20:01;4.90;;;2.88;;
34481;SDS011;20720;48.886;9.388;2023-08-12T07:22:27;5.88;;;3.35;;
34481;SDS011;20720;48.886;9.388;2023-08-12T07:24:52;3.90;;;2.88;;
34481;SDS011;20720;48.886;9.388;2023-08-12T07:27:17;6.03;;;2.88;;
34481;SDS011;20720;48.886;9.388;2023-08-12T07:29:43;6.75;;;2.92;;
34481;SDS011;20720;48.886;9.388;2023-08-12T07:32:08;3.97;;;2.83;;
34481;SDS011;20720;48.886;9.388;2023-08-12T07:34:33;4.63;;;2.97;;
34481;SDS011;20720;48.886;9.388;2023-08-12T07:36:58;8.20;;;3.53;;
34481;SDS011;20720;48.886;9.388;2023-08-12T07:39:24;5.85;;;3.10;;
34481;SDS011;20720;48.886;9.388;2023-08-12T07:41:49;5.00;;;3.57;;
34481;SDS011;20720;48.886;9.388;2023-08-12T07:44:14;5.77;;;2.90;;
34481;SDS011;20720;48.886;9.388;2023-08-12T07:46:39;7.37;;;3.47;;
34481;SDS011;20720;48.886;9.388;2023-08-12T07:49:05;3.72;;;2.92;;
34481;SDS011;20720;48.886;9.388;2023-08-12T07:51:30;5.55;;;3.40;;
34481;SDS011;20720;48.886;9.388;2023-08-12T07:53:55;4.32;;;2.90;;
34481;SDS011;20720;48.886;9.388;2023-08-12T07:56:20;4.68;;;2.88;;
34481;SDS011;20720;48.886;9.388;2023-08-12T07:58:46;4.30;;;3.05;;
34481;SDS011;20720;48.886;9.388;2023-08-12T08:01:12;8.30;;;2.72;;
34481;SDS011;20720;48.886;9.388;2023-08-12T08:03:38;4.45;;;3.25;;
34481;SDS011;20720;48.886;9.388;2023-08-12T08:06:04;5.13;;;3.22;;
34481;SDS011;20720;48.886;9.388;2023-08-12T08:08:29;4.77;;;3.23;;
34481;SDS011;20720;48.886;9.388;2023-08-12T08:10:54;4.20;;;3.05;;
34481;SDS011;20720;48.886;9.388;2023-08-12T08:13:20;4.00;;;2.45;;
34481;SDS011;20720;48.886;9.388;2023-08-12T08:15:45;3.13;;;2.42;;
34481;SDS011;20720;48.886;9.388;2023-08-12T08:18:11;3.85;;;2.45;;
34481;SDS011;20720;48.886;9.388;2023-08-12T08:20:36;4.45;;;2.83;;
34481;SDS011;20720;48.886;9.388;2023-08-12T08:23:02;3.63;;;2.63;;
34481;SDS011;20720;48.886;9.388;2023-08-12T08:25:27;2.40;;;2.10;;
34481;SDS011;20720;48.886;9.388;2023-08-12T08:27:52;3.80;;;2.63;;
34481;SDS011;20720;48.886;9.388;2023-08-12T08:30:18;3.63;;;2.65;;
34481;SDS011;20720;48.886;9.388;2023-08-12T08:32:43;2.93;;;2.27;;
34481;SDS011;20720;48.886;9.388;2023-08-12T08:35:08;7.03;;;2.77;;
34481;SDS011;20720;48.886;9.388;2023-08-12T08:37:33;4.20;;;2.17;;
34481;SDS011;20720;48.886;9.388;2023-08-12T08:39:59;3.60;;;2.70;;
34481;SDS011;20720;48.886;9.388;2023-08-12T08:42:24;3.00;;;2.43;;
34481;SDS011;20720;48.886;9.388;2023-08-12T08:44:52;6.20;;;2.47;;
34481;SDS011;20720;48.886;9.388;2023-08-12T08:47:22;3.97;;;2.78;;
34481;SDS011;20720;48.886;9.388;2023-08-12T08:49:51;5.30;;;2.90;;
34481;SDS011;20720;48.886;9.388;2023-08-12T08:52:20;4.25;;;2.40;;
34481;SDS011;20720;48.886;9.388;2023-08-12T08:54:46;5.30;;;2.10;;
34481;SDS011;20720;48.886;9.388;2023-08-12T08:57:11;3.78;;;2.70;;
34481;SDS011;20720;48.886;9.388;2023-08-12T08:59:37;4.15;;;2.80;;
34481;SDS011;20720;48.886;9.388;2023-08-12T09:02:02;4.25;;;2.50;;
34481;SDS011;20720;48.886;9.388;2023-08-12T09:04:30;4.85;;;2.53;;
34481;SDS011;20720;48.886;9.388;2023-08-12T09:06:57;4.40;;;2.70;;
34481;SDS011;20720;48.886;9.388;2023-08-12T09:09:24;3.55;;;2.83;;
34481;SDS011;20720;48.886;9.388;2023-08-12T09:11:51;3.53;;;2.42;;
34481;SDS011;20720;48.886;9.388;2023-08-12T09:14:18;3.70;;;2.53;;
34481;SDS011;20720;48.886;9.388;2023-08-12T09:16:43;4.97;;;2.65;;
34481;SDS011;20720;48.886;9.388;2023-08-12T09:19:08;5.30;;;2.20;;
34481;SDS011;20720;48.886;9.388;2023-08-12T09:21:34;5.00;;;2.40;;
34481;SDS011;20720;48.886;9.388;2023-08-12T09:24:02;6.88;;;2.42;;
34481;SDS011;20720;48.886;9.388;2023-08-12T09:26:29;5.72;;;2.83;;
34481;SDS011;20720;48.886;9.388;2023-08-12T09:28:54;6.50;;;2.70;;
34481;SDS011;20720;48.886;9.388;2023-08-12T09:33:53;4.15;;;2.60;;
34481;SDS011;20720;48.886;9.388;2023-08-12T09:36:18;3.88;;;2.50;;
34481;SDS011;20720;48.886;9.388;2023-08-12T09:38:45;5.40;;;2.65;;
34481;SDS011;20720;48.886;9.388;2023-08-12T09:41:11;4.07;;;2.67;;
34481;SDS011;20720;48.886;9.388;2023-08-12T09:43:40;3.35;;;2.40;;
34481;SDS011;20720;48.886;9.388;2023-08-12T09:46:06;3.60;;;2.22;;
34481;SDS011;20720;48.886;9.388;2023-08-12T09:48:36;6.05;;;2.42;;
34481;SDS011;20720;48.886;9.388;2023-08-12T09:51:02;3.15;;;2.28;;
34481;SDS011;20720;48.886;9.388;2023-08-12T09:53:27;3.92;;;2.60;;
34481;SDS011;20720;48.886;9.388;2023-08-12T09:55:52;6.32;;;2.40;;
34481;SDS011;20720;48.886;9.388;2023-08-12T09:58:19;6.38;;;2.65;;
34481;SDS011;20720;48.886;9.388;2023-08-12T10:00:49;4.43;;;2.20;;
34481;SDS011;20720;48.886;9.388;2023-08-12T10:03:16;5.72;;;2.40;;
34481;SDS011;20720;48.886;9.388;2023-08-12T10:05:43;5.30;;;2.83;;
34481;SDS011;20720;48.886;9.388;2023-08-12T10:08:09;3.72;;;2.30;;
34481;SDS011;20720;48.886;9.388;2023-08-12T10:10:35;3.97;;;2.28;;
34481;SDS011;20720;48.886;9.388;2023-08-12T10:13:01;5.47;;;2.13;;
34481;SDS011;20720;48.886;9.388;2023-08-12T10:15:27;3.63;;;2.50;;
34481;SDS011;20720;48.886;9.388;2023-08-12T10:17:53;2.80;;;2.22;;
34481;SDS011;20720;48.886;9.388;2023-08-12T10:20:23;6.13;;;2.17;;
34481;SDS011;20720;48.886;9.388;2023-08-12T10:22:49;3.78;;;2.15;;
34481;SDS011;20720;48.886;9.388;2023-08-12T10:25:15;3.20;;;2.10;;
34481;SDS011;20720;48.886;9.388;2023-08-12T10:27:44;4.95;;;2.50;;
34481;SDS011;20720;48.886;9.388;2023-08-12T10:30:09;4.20;;;2.30;;
34481;SDS011;20720;48.886;9.388;2023-08-12T10:32:35;5.93;;;2.50;;
34481;SDS011;20720;48.886;9.388;2023-08-12T10:35:01;3.13;;;2.33;;
34481;SDS011;20720;48.886;9.388;2023-08-12T10:37:30;3.95;;;2.40;;
34481;SDS011;20720;48.886;9.388;2023-08-12T10:39:57;3.15;;;2.60;;
34481;SDS011;20720;48.886;9.388;2023-08-12T10:42:42;4.15;;;2.42;;
34481;SDS011;20720;48.886;9.388;2023-08-12T10:45:10;4.32;;;2.55;;
34481;SDS011;20720;48.886;9.388;2023-08-12T10:52:43;4.78;;;2.33;;
34481;SDS011;20720;48.886;9.388;2023-08-12T10:55:17;3.90;;;1.90;;
34481;SDS011;20720;48.886;9.388;2023-08-12T10:57:50;5.35;;;2.35;;
34481;SDS011;20720;48.886;9.388;2023-08-12T11:00:22;4.63;;;2.13;;
34481;SDS011;20720;48.886;9.388;2023-08-12T11:02:50;4.05;;;2.20;;
34481;SDS011;20720;48.886;9.388;2023-08-12T11:05:16;5.22;;;1.90;;
34481;SDS011;20720;48.886;9.388;2023-08-12T11:07:44;4.63;;;2.28;;
34481;SDS011;20720;48.886;9.388;2023-08-12T11:10:24;4.03;;;2.00;;
34481;SDS011;20720;48.886;9.388;2023-08-12T11:15:15;3.93;;;2.37;;
34481;SDS011;20720;48.886;9.388;2023-08-12T11:17:41;2.90;;;2.00;;
34481;SDS011;20720;48.886;9.388;2023-08-12T11:20:08;5.03;;;2.72;;
34481;SDS011;20720;48.886;9.388;2023-08-12T11:22:36;3.67;;;2.38;;
34481;SDS011;20720;48.886;9.388;2023-08-12T11:25:05;7.43;;;2.05;;
34481;SDS011;20720;48.886;9.388;2023-08-12T11:30:08;5.93;;;3.35;;
34481;SDS011;20720;48.886;9.388;2023-08-12T11:32:35;3.22;;;2.47;;
34481;SDS011;20720;48.886;9.388;2023-08-12T11:35:02;3.97;;;2.15;;
34481;SDS011;20720;48.886;9.388;2023-08-12T11:37:29;2.83;;;2.00;;
34481;SDS011;20720;48.886;9.388;2023-08-12T11:39:54;3.70;;;2.03;;
34481;SDS011;20720;48.886;9.388;2023-08-12T11:42:19;3.07;;;2.07;;
34481;SDS011;20720;48.886;9.388;2023-08-12T11:44:45;3.65;;;2.20;;
34481;SDS011;20720;48.886;9.388;2023-08-12T11:47:10;3.67;;;2.23;;
34481;SDS011;20720;48.886;9.388;2023-08-12T11:49:35;3.37;;;2.00;;
34481;SDS011;20720;48.886;9.388;2023-08-12T11:52:00;5.00;;;2.07;;
34481;SDS011;20720;48.886;9.388;2023-08-12T11:54:26;2.70;;;1.83;;
34481;SDS011;20720;48.886;9.388;2023-08-12T11:56:52;3.28;;;2.10;;
34481;SDS011;20720;48.886;9.388;2023-08-12T11:59:17;2.90;;;1.95;;
34481;SDS011;20720;48.886;9.388;2023-08-12T12:01:46;2.85;;;2.05;;
34481;SDS011;20720;48.886;9.388;2023-08-12T12:04:13;6.55;;;2.10;;
34481;SDS011;20720;48.886;9.388;2023-08-12T12:06:39;3.97;;;2.38;;
34481;SDS011;20720;48.886;9.388;2023-08-12T12:09:05;2.40;;;1.73;;
34481;SDS011;20720;48.886;9.388;2023-08-12T12:11:35;4.38;;;2.13;;
34481;SDS011;20720;48.886;9.388;2023-08-12T12:14:05;3.20;;;2.15;;
34481;SDS011;20720;48.886;9.388;2023-08-12T12:16:45;9.35;;;2.88;;
34481;SDS011;20720;48.886;9.388;2023-08-12T12:19:15;6.70;;;2.40;;
34481;SDS011;20720;48.886;9.388;2023-08-12T12:21:42;5.45;;;2.47;;
34481;SDS011;20720;48.886;9.388;2023-08-12T12:24:09;4.88;;;2.30;;
34481;SDS011;20720;48.886;9.388;2023-08-12T12:26:35;9.75;;;3.40;;
34481;SDS011;20720;48.886;9.388;2023-08-12T12:29:01;7.88;;;2.78;;
34481;SDS011;20720;48.886;9.388;2023-08-12T12:31:28;4.63;;;2.42;;
34481;SDS011;20720;48.886;9.388;2023-08-12T12:33:53;7.05;;;2.85;;
34481;SDS011;20720;48.886;9.388;2023-08-12T12:36:19;7.00;;;2.20;;
34481;SDS011;20720;48.886;9.388;2023-08-12T12:38:44;7.50;;;2.45;;
34481;SDS011;20720;48.886;9.388;2023-08-12T12:41:09;7.03;;;2.08;;
34481;SDS011;20720;48.886;9.388;2023-08-12T12:43:35;8.40;;;1.97;;
34481;SDS011;20720;48.886;9.388;2023-08-12T12:46:00;5.83;;;1.63;;
34481;SDS011;20720;48.886;9.388;2023-08-12T12:48:26;3.30;;;1.45;;
34481;SDS011;20720;48.886;9.388;2023-08-12T12:50:51;4.55;;;1.63;;
34481;SDS011;20720;48.886;9.388;2023-08-12T12:53:16;3.77;;;1.57;;
34481;SDS011;20720;48.886;9.388;2023-08-12T12:55:42;6.13;;;2.38;;
34481;SDS011;20720;48.886;9.388;2023-08-12T12:58:07;5.20;;;2.15;;
34481;SDS011;20720;48.886;9.388;2023-08-12T13:00:32;5.87;;;2.10;;
34481;SDS011;20720;48.886;9.388;2023-08-12T13:02:57;4.20;;;1.80;;
34481;SDS011;20720;48.886;9.388;2023-08-12T13:05:22;7.17;;;2.00;;
34481;SDS011;20720;48.886;9.388;2023-08-12T13:07:48;6.10;;;2.05;;
34481;SDS011;20720;48.886;9.388;2023-08-12T13:10:13;4.67;;;1.90;;
34481;SDS011;20720;48.886;9.388;2023-08-12T13:12:38;3.95;;;2.10;;
34481;SDS011;20720;48.886;9.388;2023-08-12T13:15:04;5.97;;;2.58;;
34481;SDS011;20720;48.886;9.388;2023-08-12T13:17:29;5.22;;;2.20;;
34481;SDS011;20720;48.886;9.388;2023-08-12T13:19:55;4.73;;;2.13;;
34481;SDS011;20720;48.886;9.388;2023-08-12T13:22:20;7.90;;;2.37;;
34481;SDS011;20720;48.886;9.388;2023-08-12T13:24:45;4.45;;;2.10;;
34481;SDS011;20720;48.886;9.388;2023-08-12T13:27:11;6.15;;;2.40;;
34481;SDS011;20720;48.886;9.388;2023-08-12T13:29:38;4.25;;;2.15;;
34481;SDS011;20720;48.886;9.388;2023-08-12T13:32:03;5.32;;;2.42;;
34481;SDS011;20720;48.886;9.388;2023-08-12T13:34:28;5.13;;;2.30;;
34481;SDS011;20720;48.886;9.388;2023-08-12T13:36:54;9.70;;;2.90;;
34481;SDS011;20720;48.886;9.388;2023-08-12T13:39:19;5.03;;;2.50;;
34481;SDS011;20720;48.886;9.388;2023-08-12T13:41:46;5.47;;;2.72;;
34481;SDS011;20720;48.886;9.388;2023-08-12T13:44:12;5.47;;;2.60;;
34481;SDS011;20720;48.886;9.388;2023-08-12T13:46:37;4.70;;;2.63;;
34481;SDS011;20720;48.886;9.388;2023-08-12T13:49:03;5.28;;;2.88;;
34481;SDS011;20720;48.886;9.388;2023-08-12T13:51:28;4.82;;;2.85;;
34481;SDS011;20720;48.886;9.388;2023-08-12T13:53:55;4.57;;;2.63;;
34481;SDS011;20720;48.886;9.388;2023-08-12T13:56:20;6.30;;;2.67;;
34481;SDS011;20720;48.886;9.388;2023-08-12T13:58:46;5.85;;;3.22;;
34481;SDS011;20720;48.886;9.388;2023-08-12T14:01:11;4.83;;;2.90;;
34481;SDS011;20720;48.886;9.388;2023-08-12T14:03:36;4.57;;;2.95;;
34481;SDS011;20720;48.886;9.388;2023-08-12T14:06:02;5.95;;;2.95;;
34481;SDS011;20720;48.886;9.388;2023-08-12T14:08:27;6.05;;;2.83;;
34481;SDS011;20720;48.886;9.388;2023-08-12T14:10:52;4.40;;;2.55;;
34481;SDS011;20720;48.886;9.388;2023-08-12T14:13:18;5.95;;;2.90;;
34481;SDS011;20720;48.886;9.388;2023-08-12T14:15:43;6.18;;;2.72;;
34481;SDS011;20720;48.886;9.388;2023-08-12T14:18:09;6.88;;;3.15;;
34481;SDS011;20720;48.886;9.388;2023-08-12T14:20:34;6.80;;;2.75;;
34481;SDS011;20720;48.886;9.388;2023-08-12T14:22:59;4.25;;;2.55;;
34481;SDS011;20720;48.886;9.388;2023-08-12T14:25:25;4.50;;;2.67;;
34481;SDS011;20720;48.886;9.388;2023-08-12T14:27:50;3.80;;;2.27;;
34481;SDS011;20720;48.886;9.388;2023-08-12T14:30:17;5.68;;;2.10;;
34481;SDS011;20720;48.886;9.388;2023-08-12T14:32:44;5.00;;;1.83;;
34481;SDS011;20720;48.886;9.388;2023-08-12T14:35:09;3.72;;;1.80;;
34481;SDS011;20720;48.886;9.388;2023-08-12T14:37:35;4.22;;;1.90;;
34481;SDS011;20720;48.886;9.388;2023-08-12T14:40:00;3.65;;;1.90;;
34481;SDS011;20720;48.886;9.388;2023-08-12T14:42:26;3.85;;;2.03;;
34481;SDS011;20720;48.886;9.388;2023-08-12T14:44:51;2.75;;;1.85;;
34481;SDS011;20720;48.886;9.388;2023-08-12T14:47:16;5.43;;;2.08;;
34481;SDS011;20720;48.886;9.388;2023-08-12T14:49:41;3.03;;;1.90;;
34481;SDS011;20720;48.886;9.388;2023-08-12T14:52:14;2.42;;;1.70;;
34481;SDS011;20720;48.886;9.388;2023-08-12T14:54:43;3.47;;;1.80;;
34481;SDS011;20720;48.886;9.388;2023-08-12T14:57:09;3.60;;;1.95;;
34481;SDS011;20720;48.886;9.388;2023-08-12T14:59:34;2.87;;;1.83;;
34481;SDS011;20720;48.886;9.388;2023-08-12T15:01:59;3.23;;;1.67;;